createdAt,value
2017-06-24T00:00:45.638Z,73.71
2017-06-24T00:01:47.505Z,74.29
2017-06-24T00:02:49.394Z,74.09
2017-06-24T00:03:51.256Z,74.29
2017-06-24T00:04:53.055Z,74.29
2017-06-24T00:05:54.857Z,74.29
2017-06-24T00:06:56.721Z,74.15
2017-06-24T00:07:58.609Z,74.34
2017-06-24T00:09:00.493Z,74.25
2017-06-24T00:10:14.627Z,74.54
2017-06-24T00:11:16.510Z,75.21
2017-06-24T00:12:18.373Z,74.73
2017-06-24T00:13:20.232Z,74.63
2017-06-24T00:14:22.039Z,74.82
2017-06-24T00:15:23.856Z,74.73
2017-06-24T00:16:25.725Z,74.92
2017-06-24T00:17:27.611Z,74.82
2017-06-24T00:18:29.499Z,75.11
2017-06-24T00:19:43.653Z,75.02
2017-06-24T00:20:45.537Z,74.82
2017-06-24T00:21:47.420Z,74.82
2017-06-24T00:22:49.286Z,75.02
2017-06-24T00:23:51.084Z,74.73
2017-06-24T00:24:52.883Z,74.82
2017-06-24T00:25:54.745Z,75.11
2017-06-24T00:26:56.612Z,75.11
2017-06-24T00:27:58.474Z,75.40
2017-06-24T00:29:12.610Z,75.40
2017-06-24T00:30:14.471Z,75.79
2017-06-24T00:31:16.332Z,75.59
2017-06-24T00:32:18.219Z,76.14
2017-06-24T00:33:20.044Z,76.52
2017-06-24T00:34:21.844Z,76.23
2017-06-24T00:35:23.706Z,76.04
2017-06-24T00:36:25.576Z,76.14
2017-06-24T00:37:27.441Z,76.23
2017-06-24T00:38:41.599Z,76.32
2017-06-24T00:39:43.479Z,76.32
2017-06-24T00:40:45.345Z,76.32
2017-06-24T00:41:47.231Z,76.23
2017-06-24T00:42:49.058Z,76.23
2017-06-24T00:43:50.880Z,76.14
2017-06-24T00:44:52.763Z,76.32
2017-06-24T00:45:54.626Z,76.04
2017-06-24T00:46:56.492Z,76.04
2017-06-24T00:48:10.625Z,75.94
2017-06-24T00:49:12.508Z,76.71
2017-06-24T00:50:14.397Z,76.61
2017-06-24T00:51:16.279Z,76.14
2017-06-24T00:52:18.097Z,75.84
2017-06-24T00:53:19.898Z,76.04
2017-06-24T00:54:21.769Z,76.04
2017-06-24T00:55:23.652Z,76.32
2017-06-24T00:56:25.517Z,76.42
2017-06-24T00:57:39.674Z,75.84
2017-06-24T00:58:41.555Z,75.84
2017-06-24T00:59:43.443Z,76.32
2017-06-24T01:00:45.308Z,75.84
2017-06-24T01:01:47.112Z,75.75
2017-06-24T01:02:48.934Z,75.94
2017-06-24T01:03:50.800Z,75.75
2017-06-24T01:04:52.689Z,75.75
2017-06-24T01:05:54.552Z,75.84
2017-06-24T01:07:08.683Z,75.84
2017-06-24T01:08:10.548Z,76.04
2017-06-24T01:09:12.415Z,76.14
2017-06-24T01:10:14.274Z,75.94
2017-06-24T01:11:16.081Z,75.56
2017-06-24T01:12:17.879Z,75.75
2017-06-24T01:13:19.764Z,75.46
2017-06-24T01:14:21.625Z,76.04
2017-06-24T01:15:23.489Z,75.75
2017-06-24T01:16:37.624Z,75.56
2017-06-24T01:17:39.502Z,75.46
2017-06-24T01:18:41.373Z,75.56
2017-06-24T01:19:43.262Z,75.56
2017-06-24T01:20:45.090Z,75.46
2017-06-24T01:21:46.910Z,75.65
2017-06-24T01:22:48.794Z,75.65
2017-06-24T01:23:50.677Z,75.07
2017-06-24T01:24:52.544Z,75.37
2017-06-24T01:26:06.701Z,75.07
2017-06-24T01:27:08.586Z,75.37
2017-06-24T01:28:10.471Z,75.17
2017-06-24T01:29:12.356Z,75.07
2017-06-24T01:30:14.174Z,75.56
2017-06-24T01:31:15.998Z,75.46
2017-06-24T01:32:17.875Z,75.46
2017-06-24T01:33:19.740Z,75.56
2017-06-24T01:34:21.602Z,75.46
2017-06-24T01:35:35.733Z,75.65
2017-06-24T01:36:37.601Z,75.65
2017-06-24T01:37:39.469Z,75.27
2017-06-24T01:38:41.354Z,75.07
2017-06-24T01:39:43.169Z,75.37
2017-06-24T01:40:44.972Z,74.79
2017-06-24T01:41:46.857Z,74.69
2017-06-24T01:42:48.738Z,74.69
2017-06-24T01:43:50.596Z,74.69
2017-06-24T01:45:04.730Z,75.37
2017-06-24T01:46:06.613Z,75.37
2017-06-24T01:47:08.499Z,75.17
2017-06-24T01:48:10.380Z,75.37
2017-06-24T01:49:12.176Z,75.17
2017-06-24T01:50:13.972Z,74.98
2017-06-24T01:51:15.842Z,75.17
2017-06-24T01:52:17.726Z,75.46
2017-06-24T01:53:19.615Z,75.46
2017-06-24T01:54:33.767Z,75.65
2017-06-24T01:55:35.650Z,75.27
2017-06-24T01:56:37.536Z,75.37
2017-06-24T01:57:39.415Z,75.37
2017-06-24T01:58:41.215Z,75.27
2017-06-24T01:59:43.035Z,74.92
2017-06-24T02:00:44.900Z,75.11
2017-06-24T02:01:46.788Z,74.82
2017-06-24T02:02:48.673Z,74.73
2017-06-24T02:04:02.825Z,74.82
2017-06-24T02:05:04.708Z,74.73
2017-06-24T02:06:06.568Z,74.34
2017-06-24T02:07:08.450Z,74.25
2017-06-24T02:08:10.248Z,74.44
2017-06-24T02:09:12.048Z,74.15
2017-06-24T02:10:13.908Z,74.44
2017-06-24T02:11:15.772Z,74.25
2017-06-24T02:12:17.638Z,73.96
2017-06-24T02:13:31.791Z,74.15
2017-06-24T02:14:33.654Z,74.15
2017-06-24T02:15:35.516Z,73.67
2017-06-24T02:16:37.383Z,73.57
2017-06-24T02:17:39.204Z,74.05
2017-06-24T02:18:41.019Z,74.05
2017-06-24T02:19:42.897Z,74.05
2017-06-24T02:20:44.748Z,73.86
2017-06-24T02:21:46.616Z,73.67
2017-06-24T02:23:00.776Z,73.67
2017-06-24T02:24:02.655Z,73.77
2017-06-24T02:25:04.519Z,73.67
2017-06-24T02:26:06.388Z,74.25
2017-06-24T02:27:08.208Z,73.67
2017-06-24T02:28:10.028Z,73.96
2017-06-24T02:29:11.894Z,74.05
2017-06-24T02:30:13.779Z,74.15
2017-06-24T02:31:15.663Z,74.15
2017-06-24T02:32:29.802Z,74.25
2017-06-24T02:33:31.667Z,74.25
2017-06-24T02:34:33.551Z,74.34
2017-06-24T02:35:35.438Z,74.25
2017-06-24T02:36:37.257Z,74.15
2017-06-24T02:37:39.062Z,74.92
2017-06-24T02:38:40.950Z,74.25
2017-06-24T02:39:42.818Z,74.25
2017-06-24T02:40:44.666Z,74.63
2017-06-24T02:41:58.825Z,74.54
2017-06-24T02:43:00.712Z,74.73
2017-06-24T02:44:02.601Z,75.07
2017-06-24T02:45:04.491Z,75.27
2017-06-24T02:46:06.310Z,74.79
2017-06-24T02:47:08.115Z,74.60
2017-06-24T02:48:09.985Z,75.17
2017-06-24T02:49:11.829Z,74.69
2017-06-24T02:50:13.689Z,74.69
2017-06-24T02:51:27.820Z,74.69
2017-06-24T02:52:29.690Z,74.98
2017-06-24T02:53:31.572Z,75.31
2017-06-24T02:54:33.437Z,74.82
2017-06-24T02:55:35.235Z,75.11
2017-06-24T02:56:37.043Z,74.82
2017-06-24T02:57:38.928Z,74.73
2017-06-24T02:58:40.797Z,74.82
2017-06-24T02:59:42.685Z,74.92
2017-06-24T03:00:56.840Z,75.02
2017-06-24T03:01:58.726Z,75.40
2017-06-24T03:03:00.612Z,74.73
2017-06-24T03:04:02.477Z,74.73
2017-06-24T03:05:04.281Z,74.82
2017-06-24T03:06:06.085Z,74.82
2017-06-24T03:07:07.952Z,75.31
2017-06-24T03:08:09.823Z,75.21
2017-06-24T03:09:11.714Z,75.40
2017-06-24T03:10:25.869Z,75.27
2017-06-24T03:11:27.734Z,75.49
2017-06-24T03:12:29.625Z,75.59
2017-06-24T03:13:31.511Z,75.49
2017-06-24T03:14:33.314Z,75.49
2017-06-24T03:15:35.133Z,75.31
2017-06-24T03:16:37.006Z,75.02
2017-06-24T03:17:38.874Z,75.02
2017-06-24T03:18:40.767Z,74.73
2017-06-24T03:19:54.925Z,74.48
2017-06-24T03:20:56.812Z,73.80
2017-06-24T03:21:58.677Z,74.48
2017-06-24T03:23:00.545Z,74.48
2017-06-24T03:24:02.351Z,74.38
2017-06-24T03:25:04.174Z,73.80
2017-06-24T03:26:06.065Z,73.71
2017-06-24T03:27:07.948Z,73.61
2017-06-24T03:28:09.818Z,73.42
2017-06-24T03:29:23.949Z,73.22
2017-06-24T03:30:25.823Z,73.32
2017-06-24T03:31:27.705Z,73.13
2017-06-24T03:32:29.576Z,72.74
2017-06-24T03:33:31.402Z,73.07
2017-06-24T03:34:33.207Z,73.51
2017-06-24T03:35:35.072Z,73.07
2017-06-24T03:36:36.936Z,73.16
2017-06-24T03:37:38.809Z,72.68
2017-06-24T03:38:52.963Z,73.07
2017-06-24T03:39:54.833Z,72.59
2017-06-24T03:40:56.696Z,72.88
2017-06-24T03:41:58.566Z,72.39
2017-06-24T03:43:00.372Z,72.39
2017-06-24T03:44:02.199Z,72.78
2017-06-24T03:45:04.092Z,72.49
2017-06-24T03:46:05.979Z,72.74
2017-06-24T03:47:07.850Z,73.07
2017-06-24T03:48:22.014Z,72.78
2017-06-24T03:49:23.901Z,72.88
2017-06-24T03:50:25.768Z,72.30
2017-06-24T03:51:27.654Z,72.39
2017-06-24T03:52:29.461Z,72.24
2017-06-24T03:53:31.287Z,71.66
2017-06-24T03:54:33.174Z,70.98
2017-06-24T03:55:35.042Z,70.73
2017-06-24T03:56:36.932Z,69.96
2017-06-24T03:57:51.090Z,69.57
2017-06-24T03:58:52.958Z,69.67
2017-06-24T03:59:54.847Z,69.23
2017-06-24T04:00:56.737Z,68.45
2017-06-24T04:01:58.560Z,67.49
2017-06-24T04:03:00.361Z,67.71
2017-06-24T04:04:02.237Z,67.14
2017-06-24T04:05:04.123Z,66.59
2017-06-24T04:06:05.994Z,65.91
2017-06-24T04:07:20.131Z,64.86
2017-06-24T04:08:22.005Z,64.86
2017-06-24T04:09:23.894Z,65.05
2017-06-24T04:10:25.789Z,64.56
2017-06-24T04:11:27.614Z,65.43
2017-06-24T04:12:29.422Z,65.88
2017-06-24T04:13:31.312Z,66.27
2017-06-24T04:14:33.187Z,66.66
2017-06-24T04:15:35.076Z,66.62
2017-06-24T04:16:49.235Z,67.20
2017-06-24T04:17:51.108Z,67.40
2017-06-24T04:18:52.972Z,67.68
2017-06-24T04:19:54.839Z,68.16
2017-06-24T04:20:56.644Z,67.88
2017-06-24T04:21:58.455Z,67.68
2017-06-24T04:23:00.349Z,66.94
2017-06-24T04:24:02.238Z,66.94
2017-06-24T04:25:04.109Z,65.72
2017-06-24T04:26:18.249Z,65.05
2017-06-24T04:27:20.115Z,63.92
2017-06-24T04:28:21.987Z,63.08
2017-06-24T04:29:23.857Z,62.53
2017-06-24T04:30:25.659Z,61.40
2017-06-24T04:31:27.465Z,60.17
2017-06-24T04:32:29.274Z,58.63
2017-06-24T04:33:31.083Z,58.17
2017-06-24T04:34:32.913Z,57.20
2017-06-24T04:35:47.075Z,56.75
2017-06-24T04:36:48.968Z,56.29
2017-06-24T04:37:50.861Z,55.54
2017-06-24T04:38:52.747Z,54.58
2017-06-24T04:39:54.565Z,53.63
2017-06-24T04:40:56.386Z,53.24
2017-06-24T04:41:58.263Z,52.30
2017-06-24T04:43:00.154Z,51.72
2017-06-24T04:44:02.050Z,51.62
2017-06-24T04:45:16.267Z,50.87
2017-06-24T04:46:18.163Z,50.77
2017-06-24T04:47:20.054Z,50.02
2017-06-24T04:48:21.926Z,49.61
2017-06-24T04:49:23.734Z,49.34
2017-06-24T04:50:25.537Z,49.22
2017-06-24T04:51:27.415Z,49.61
2017-06-24T04:52:29.308Z,50.19
2017-06-24T04:53:31.209Z,50.21
2017-06-24T04:54:45.366Z,49.82
2017-06-24T04:55:47.241Z,49.61
2017-06-24T04:56:49.136Z,49.41
2017-06-24T04:57:51.006Z,49.44
2017-06-24T04:58:52.837Z,48.95
2017-06-24T04:59:54.667Z,48.30
2017-06-24T05:00:56.558Z,47.32
2017-06-24T05:01:58.434Z,47.44
2017-06-24T05:03:00.326Z,46.69
2017-06-24T05:04:14.479Z,45.74
2017-06-24T05:05:16.370Z,45.25
2017-06-24T05:06:18.244Z,44.48
2017-06-24T05:07:20.140Z,44.40
2017-06-24T05:08:21.946Z,44.10
2017-06-24T05:09:23.755Z,43.64
2017-06-24T05:10:25.629Z,43.08
2017-06-24T05:11:27.521Z,42.51
2017-06-24T05:12:29.421Z,41.85
2017-06-24T05:13:43.594Z,41.07
2017-06-24T05:14:45.487Z,40.50
2017-06-24T05:15:47.377Z,40.23
2017-06-24T05:16:49.248Z,40.14
2017-06-24T05:17:51.059Z,39.94
2017-06-24T05:18:52.889Z,38.87
2017-06-24T05:19:54.765Z,38.84
2017-06-24T05:20:56.634Z,39.43
2017-06-24T05:21:58.514Z,39.31
2017-06-24T05:23:12.683Z,39.39
2017-06-24T05:24:14.552Z,40.08
2017-06-24T05:25:16.449Z,39.96
2017-06-24T05:26:18.350Z,39.96
2017-06-24T05:27:20.183Z,40.55
2017-06-24T05:28:22.019Z,40.25
2017-06-24T05:29:23.891Z,40.64
2017-06-24T05:30:25.786Z,40.55
2017-06-24T05:31:27.658Z,40.45
2017-06-24T05:32:41.820Z,40.35
2017-06-24T05:33:43.670Z,40.72
2017-06-24T05:34:45.567Z,40.62
2017-06-24T05:35:47.467Z,41.28
2017-06-24T05:36:49.296Z,41.57
2017-06-24T05:37:51.112Z,41.57
2017-06-24T05:38:52.978Z,41.09
2017-06-24T05:39:54.856Z,41.38
2017-06-24T05:40:56.749Z,41.28
2017-06-24T05:42:10.902Z,41.46
2017-06-24T05:43:12.791Z,41.55
2017-06-24T05:44:14.667Z,41.55
2017-06-24T05:45:16.539Z,42.14
2017-06-24T05:46:18.348Z,42.60
2017-06-24T05:47:20.181Z,42.31
2017-06-24T05:48:22.040Z,42.87
2017-06-24T05:49:23.889Z,43.85
2017-06-24T05:50:25.722Z,43.95
2017-06-24T05:51:39.886Z,44.62
2017-06-24T05:52:41.758Z,44.70
2017-06-24T05:53:43.649Z,44.99
2017-06-24T05:54:45.523Z,45.38
2017-06-24T05:55:47.354Z,45.17
2017-06-24T05:56:49.186Z,46.01
2017-06-24T05:57:51.079Z,47.06
2017-06-24T05:58:52.949Z,47.25
2017-06-24T05:59:54.825Z,47.64
2017-06-24T06:01:08.986Z,48.00
2017-06-24T06:02:10.858Z,48.59
2017-06-24T06:03:12.729Z,49.15
2017-06-24T06:04:14.598Z,49.44
2017-06-24T06:05:16.410Z,50.09
2017-06-24T06:06:18.241Z,50.57
2017-06-24T06:07:20.117Z,50.77
2017-06-24T06:08:22.014Z,51.25
2017-06-24T06:09:23.905Z,51.72
2017-06-24T06:10:38.044Z,51.72
2017-06-24T06:11:39.919Z,51.52
2017-06-24T06:12:41.809Z,51.72
2017-06-24T06:13:43.679Z,51.72
2017-06-24T06:14:45.522Z,51.78
2017-06-24T06:15:47.319Z,52.27
2017-06-24T06:16:49.189Z,52.85
2017-06-24T06:17:51.054Z,53.04
2017-06-24T06:18:52.925Z,52.95
2017-06-24T06:20:07.066Z,53.72
2017-06-24T06:21:08.936Z,53.43
2017-06-24T06:22:10.805Z,53.43
2017-06-24T06:23:12.682Z,53.33
2017-06-24T06:24:14.511Z,52.85
2017-06-24T06:25:16.340Z,52.27
2017-06-24T06:26:18.213Z,52.46
2017-06-24T06:27:20.085Z,52.27
2017-06-24T06:28:21.984Z,52.46
2017-06-24T06:29:36.120Z,52.17
2017-06-24T06:30:37.995Z,52.27
2017-06-24T06:31:39.888Z,52.66
2017-06-24T06:32:41.776Z,53.50
2017-06-24T06:33:43.606Z,53.50
2017-06-24T06:34:45.416Z,53.59
2017-06-24T06:35:47.295Z,54.05
2017-06-24T06:36:49.186Z,54.37
2017-06-24T06:37:51.057Z,54.27
2017-06-24T06:39:05.196Z,55.02
2017-06-24T06:40:07.074Z,55.21
2017-06-24T06:41:09.376Z,55.15
2017-06-24T06:42:11.260Z,55.15
2017-06-24T06:43:13.201Z,54.66
2017-06-24T06:44:15.040Z,55.05
2017-06-24T06:45:16.942Z,54.57
2017-06-24T06:46:18.826Z,54.17
2017-06-24T06:47:20.702Z,54.37
2017-06-24T06:48:34.849Z,54.27
2017-06-24T06:49:36.716Z,54.17
2017-06-24T06:50:38.592Z,54.37
2017-06-24T06:51:40.485Z,54.15
2017-06-24T06:52:42.313Z,55.02
2017-06-24T06:53:44.138Z,55.51
2017-06-24T06:54:46.009Z,55.60
2017-06-24T06:55:47.885Z,55.70
2017-06-24T06:56:49.777Z,55.43
2017-06-24T06:58:03.917Z,55.15
2017-06-24T06:59:05.789Z,55.43
2017-06-24T07:00:07.686Z,55.15
2017-06-24T07:01:09.577Z,55.15
2017-06-24T07:02:11.407Z,55.15
2017-06-24T07:03:13.233Z,55.07
2017-06-24T07:04:15.106Z,55.17
2017-06-24T07:05:16.992Z,54.49
2017-06-24T07:06:18.898Z,53.75
2017-06-24T07:07:33.085Z,53.94
2017-06-24T07:08:34.977Z,53.87
2017-06-24T07:09:36.874Z,53.39
2017-06-24T07:10:38.767Z,52.97
2017-06-24T07:11:40.574Z,54.06
2017-06-24T07:12:42.384Z,53.67
2017-06-24T07:13:44.253Z,53.00
2017-06-24T07:14:46.124Z,53.00
2017-06-24T07:15:47.999Z,51.64
2017-06-24T07:17:02.160Z,52.51
2017-06-24T07:18:04.047Z,52.90
2017-06-24T07:19:05.922Z,52.51
2017-06-24T07:20:07.790Z,51.74
2017-06-24T07:21:09.598Z,52.12
2017-06-24T07:22:11.407Z,51.93
2017-06-24T07:23:13.306Z,51.84
2017-06-24T07:24:15.204Z,51.64
2017-06-24T07:25:17.085Z,51.86
2017-06-24T07:26:31.229Z,51.67
2017-06-24T07:27:33.226Z,51.74
2017-06-24T07:28:35.144Z,51.86
2017-06-24T07:29:37.035Z,51.86
2017-06-24T07:30:38.863Z,50.99
2017-06-24T07:31:40.686Z,50.89
2017-06-24T07:32:42.563Z,50.41
2017-06-24T07:33:44.455Z,50.67
2017-06-24T07:34:46.346Z,50.87
2017-06-24T07:36:00.492Z,50.77
2017-06-24T07:37:02.363Z,50.96
2017-06-24T07:38:04.248Z,50.77
2017-06-24T07:39:06.118Z,51.06
2017-06-24T07:40:07.929Z,51.28
2017-06-24T07:41:09.755Z,50.77
2017-06-24T07:42:11.652Z,50.96
2017-06-24T07:43:13.543Z,51.18
2017-06-24T07:44:15.434Z,50.89
2017-06-24T07:45:29.582Z,50.53
2017-06-24T07:46:31.474Z,50.43
2017-06-24T07:47:33.338Z,49.46
2017-06-24T07:48:35.211Z,48.69
2017-06-24T07:49:37.040Z,48.88
2017-06-24T07:50:38.853Z,48.37
2017-06-24T07:51:40.746Z,49.63
2017-06-24T07:52:42.639Z,50.77
2017-06-24T07:53:44.514Z,50.19
2017-06-24T07:54:58.680Z,50.67
2017-06-24T07:56:00.575Z,50.84
2017-06-24T07:57:02.470Z,50.74
2017-06-24T07:58:04.353Z,50.94
2017-06-24T07:59:06.208Z,52.17
2017-06-24T08:00:08.040Z,52.66
2017-06-24T08:01:09.945Z,52.46
2017-06-24T08:02:11.832Z,52.85
2017-06-24T08:03:13.792Z,53.04
2017-06-24T08:04:28.197Z,52.78
2017-06-24T08:05:30.115Z,51.52
2017-06-24T08:06:32.031Z,51.59
2017-06-24T08:07:34.009Z,51.52
2017-06-24T08:08:35.879Z,51.64
2017-06-24T08:09:37.719Z,51.64
2017-06-24T08:10:39.624Z,51.16
2017-06-24T08:11:41.627Z,51.25
2017-06-24T08:12:43.585Z,51.57
2017-06-24T08:13:57.848Z,50.41
2017-06-24T08:14:59.735Z,50.43
2017-06-24T08:16:01.608Z,50.53
2017-06-24T08:17:03.484Z,49.66
2017-06-24T08:18:05.740Z,49.49
2017-06-24T08:19:07.525Z,49.19
2017-06-24T08:20:09.424Z,48.42
2017-06-24T08:21:11.310Z,47.74
2017-06-24T08:22:13.180Z,48.03
2017-06-24T08:23:27.341Z,48.00
2017-06-24T08:24:29.289Z,49.10
2017-06-24T08:25:31.181Z,48.42
2017-06-24T08:26:33.078Z,48.20
2017-06-24T08:27:34.904Z,48.80
2017-06-24T08:28:36.736Z,48.90
2017-06-24T08:29:38.610Z,48.03
2017-06-24T08:30:40.515Z,47.86
2017-06-24T08:31:42.408Z,47.18
2017-06-24T08:32:56.581Z,47.08
2017-06-24T08:33:58.477Z,47.47
2017-06-24T08:35:00.387Z,47.47
2017-06-24T08:36:02.274Z,47.18
2017-06-24T08:37:04.090Z,46.79
2017-06-24T08:38:05.929Z,45.72
2017-06-24T08:39:07.822Z,45.24
2017-06-24T08:40:09.718Z,45.36
2017-06-24T08:41:11.618Z,44.68
2017-06-24T08:42:25.786Z,44.38
2017-06-24T08:43:28.114Z,43.61
2017-06-24T08:44:30.093Z,43.90
2017-06-24T08:45:31.972Z,44.09
2017-06-24T08:46:33.805Z,44.09
2017-06-24T08:47:35.634Z,44.00
2017-06-24T08:48:37.534Z,43.59
2017-06-24T08:49:39.423Z,42.33
2017-06-24T08:50:41.312Z,42.43
2017-06-24T08:51:55.582Z,43.40
2017-06-24T08:52:57.553Z,43.40
2017-06-24T08:53:59.446Z,43.41
2017-06-24T08:55:01.338Z,43.49
2017-06-24T08:56:03.165Z,44.07
2017-06-24T08:57:04.979Z,44.17
2017-06-24T08:58:06.907Z,43.88
2017-06-24T08:59:08.790Z,44.46
2017-06-24T09:00:10.682Z,44.29
2017-06-24T09:01:24.904Z,42.93
2017-06-24T09:02:26.837Z,40.00
2017-06-24T09:03:28.711Z,40.00
2017-06-24T09:04:30.601Z,41.41
2017-06-24T09:05:32.535Z,42.57
2017-06-24T09:06:34.356Z,43.43
2017-06-24T09:07:36.227Z,44.30
2017-06-24T09:08:38.205Z,43.99
2017-06-24T09:09:40.095Z,44.27
2017-06-24T09:10:54.259Z,45.15
2017-06-24T09:11:56.156Z,45.54
2017-06-24T09:12:58.050Z,46.14
2017-06-24T09:13:59.910Z,46.24
2017-06-24T09:15:01.716Z,43.70
2017-06-24T09:16:03.529Z,43.89
2017-06-24T09:17:05.402Z,44.27
2017-06-24T09:18:07.288Z,45.15
2017-06-24T09:19:09.176Z,45.37
2017-06-24T09:20:23.371Z,45.95
2017-06-24T09:21:25.381Z,45.00
2017-06-24T09:22:27.285Z,43.54
2017-06-24T09:23:29.245Z,43.66
2017-06-24T09:24:31.059Z,43.66
2017-06-24T09:25:32.889Z,41.89
2017-06-24T09:26:34.762Z,41.99
2017-06-24T09:27:36.648Z,42.09
2017-06-24T09:28:38.546Z,42.86
2017-06-24T09:29:52.785Z,43.45
2017-06-24T09:30:54.733Z,43.57
2017-06-24T09:31:56.673Z,42.60
2017-06-24T09:32:58.659Z,41.64
2017-06-24T09:34:00.489Z,41.36
2017-06-24T09:35:02.326Z,41.16
2017-06-24T09:36:04.241Z,40.87
2017-06-24T09:37:06.101Z,41.57
2017-06-24T09:38:08.000Z,41.57
2017-06-24T09:39:22.145Z,41.30
2017-06-24T09:40:24.015Z,40.91
2017-06-24T09:41:25.909Z,40.13
2017-06-24T09:42:27.770Z,39.65
2017-06-24T09:43:29.584Z,40.21
2017-06-24T09:44:31.395Z,40.67
2017-06-24T09:45:33.301Z,40.95
2017-06-24T09:46:35.169Z,41.94
2017-06-24T09:47:37.054Z,42.33
2017-06-24T09:48:51.218Z,41.43
2017-06-24T09:49:53.105Z,41.43
2017-06-24T09:50:55.174Z,42.11
2017-06-24T09:51:57.028Z,42.60
2017-06-24T09:52:58.839Z,42.89
2017-06-24T09:54:00.643Z,42.11
2017-06-24T09:55:02.522Z,41.99
2017-06-24T09:56:04.361Z,42.67
2017-06-24T09:57:06.254Z,42.57
2017-06-24T09:58:20.464Z,42.67
2017-06-24T09:59:22.354Z,42.55
2017-06-24T10:00:24.246Z,43.52
2017-06-24T10:01:26.133Z,43.99
2017-06-24T10:02:27.974Z,43.79
2017-06-24T10:03:29.960Z,42.92
2017-06-24T10:04:31.850Z,43.60
2017-06-24T10:05:33.801Z,43.60
2017-06-24T10:06:35.688Z,42.72
2017-06-24T10:07:49.835Z,43.62
2017-06-24T10:08:51.725Z,43.54
2017-06-24T10:09:53.614Z,42.77
2017-06-24T10:10:55.502Z,42.89
2017-06-24T10:11:57.335Z,42.79
2017-06-24T10:12:59.148Z,42.33
2017-06-24T10:14:01.012Z,40.67
2017-06-24T10:15:02.878Z,40.17
2017-06-24T10:16:04.755Z,40.46
2017-06-24T10:17:18.913Z,40.92
2017-06-24T10:18:20.778Z,40.83
2017-06-24T10:19:22.651Z,41.31
2017-06-24T10:20:24.551Z,42.60
2017-06-24T10:21:26.396Z,41.14
2017-06-24T10:22:28.492Z,40.85
2017-06-24T10:23:30.377Z,40.66
2017-06-24T10:24:32.364Z,39.59
2017-06-24T10:25:34.255Z,40.08
2017-06-24T10:26:48.421Z,40.39
2017-06-24T10:27:50.382Z,40.39
2017-06-24T10:28:52.243Z,40.58
2017-06-24T10:29:54.117Z,40.67
2017-06-24T10:30:55.947Z,40.01
2017-06-24T10:31:57.775Z,39.32
2017-06-24T10:32:59.667Z,39.41
2017-06-24T10:34:01.535Z,39.80
2017-06-24T10:35:03.449Z,40.09
2017-06-24T10:36:17.610Z,39.88
2017-06-24T10:37:19.474Z,40.46
2017-06-24T10:38:21.361Z,41.06
2017-06-24T10:39:23.233Z,41.05
2017-06-24T10:40:25.060Z,40.77
2017-06-24T10:41:26.871Z,41.06
2017-06-24T10:42:28.759Z,41.06
2017-06-24T10:43:30.651Z,40.41
2017-06-24T10:44:32.519Z,40.01
2017-06-24T10:45:46.675Z,39.82
2017-06-24T10:46:48.564Z,39.92
2017-06-24T10:47:50.523Z,40.21
2017-06-24T10:48:52.479Z,40.31
2017-06-24T10:49:54.287Z,39.34
2017-06-24T10:50:56.111Z,40.01
2017-06-24T10:51:58.001Z,39.92
2017-06-24T10:52:59.920Z,40.60
2017-06-24T10:54:01.848Z,40.72
2017-06-24T10:55:16.111Z,40.42
2017-06-24T10:56:17.974Z,40.33
2017-06-24T10:57:19.866Z,40.15
2017-06-24T10:58:21.756Z,39.96
2017-06-24T10:59:23.645Z,39.57
2017-06-24T11:00:25.542Z,39.08
2017-06-24T11:01:27.492Z,39.08
2017-06-24T11:02:29.411Z,39.10
2017-06-24T11:03:31.285Z,38.91
2017-06-24T11:04:45.436Z,38.42
2017-06-24T11:05:47.327Z,38.32
2017-06-24T11:06:49.211Z,37.93
2017-06-24T11:07:51.085Z,36.87
2017-06-24T11:08:52.916Z,37.92
2017-06-24T11:09:54.747Z,38.11
2017-06-24T11:10:56.636Z,39.18
2017-06-24T11:11:58.529Z,39.08
2017-06-24T11:13:00.423Z,38.40
2017-06-24T11:14:14.583Z,38.42
2017-06-24T11:15:16.487Z,38.32
2017-06-24T11:16:18.340Z,38.32
2017-06-24T11:17:20.231Z,38.13
2017-06-24T11:18:22.044Z,37.93
2017-06-24T11:19:23.873Z,36.96
2017-06-24T11:20:25.765Z,36.36
2017-06-24T11:21:27.660Z,36.73
2017-06-24T11:22:29.552Z,36.93
2017-06-24T11:23:43.730Z,37.22
2017-06-24T11:24:45.589Z,37.41
2017-06-24T11:25:47.459Z,37.99
2017-06-24T11:26:49.341Z,38.29
2017-06-24T11:27:51.155Z,38.39
2017-06-24T11:28:52.962Z,38.19
2017-06-24T11:29:54.854Z,37.90
2017-06-24T11:30:56.740Z,37.02
2017-06-24T11:31:58.616Z,37.49
2017-06-24T11:33:12.780Z,37.20
2017-06-24T11:34:14.672Z,38.46
2017-06-24T11:35:16.559Z,39.14
2017-06-24T11:36:18.431Z,38.85
2017-06-24T11:37:20.264Z,38.06
2017-06-24T11:38:22.090Z,37.96
2017-06-24T11:39:23.964Z,37.96
2017-06-24T11:40:25.853Z,38.34
2017-06-24T11:41:27.751Z,38.44
2017-06-24T11:42:41.903Z,38.83
2017-06-24T11:43:43.780Z,39.32
2017-06-24T11:44:45.645Z,39.61
2017-06-24T11:45:47.520Z,39.62
2017-06-24T11:46:49.343Z,39.82
2017-06-24T11:47:51.157Z,38.95
2017-06-24T11:48:53.049Z,39.04
2017-06-24T11:49:54.941Z,39.04
2017-06-24T11:50:56.831Z,38.46
2017-06-24T11:52:10.994Z,38.96
2017-06-24T11:53:12.865Z,38.48
2017-06-24T11:54:14.756Z,37.99
2017-06-24T11:55:16.659Z,37.99
2017-06-24T11:56:18.470Z,36.73
2017-06-24T11:57:20.293Z,36.54
2017-06-24T11:58:22.159Z,36.81
2017-06-24T11:59:24.028Z,37.59
2017-06-24T12:00:25.920Z,38.07
2017-06-24T12:01:40.064Z,37.98
2017-06-24T12:02:41.958Z,37.41
2017-06-24T12:03:43.842Z,36.73
2017-06-24T12:04:45.712Z,36.44
2017-06-24T12:05:47.542Z,36.93
2017-06-24T12:06:49.349Z,36.93
2017-06-24T12:07:51.180Z,37.43
2017-06-24T12:08:52.989Z,37.43
2017-06-24T12:09:54.827Z,37.43
2017-06-24T12:11:08.991Z,38.03
2017-06-24T12:12:10.881Z,37.46
2017-06-24T12:13:12.759Z,37.26
2017-06-24T12:14:14.644Z,37.06
2017-06-24T12:15:16.447Z,36.67
2017-06-24T12:16:18.264Z,35.71
2017-06-24T12:17:20.157Z,36.20
2017-06-24T12:18:22.041Z,35.81
2017-06-24T12:19:23.918Z,35.52
2017-06-24T12:20:38.083Z,35.91
2017-06-24T12:21:39.968Z,35.42
2017-06-24T12:22:41.838Z,34.55
2017-06-24T12:23:43.702Z,34.33
2017-06-24T12:24:45.513Z,34.82
2017-06-24T12:25:47.345Z,34.53
2017-06-24T12:26:49.239Z,34.72
2017-06-24T12:27:51.103Z,34.82
2017-06-24T12:28:52.976Z,34.05
2017-06-24T12:30:07.138Z,33.46
2017-06-24T12:31:09.008Z,33.86
2017-06-24T12:32:10.902Z,33.86
2017-06-24T12:33:12.790Z,34.16
2017-06-24T12:34:14.596Z,34.55
2017-06-24T12:35:16.412Z,34.47
2017-06-24T12:36:18.302Z,33.98
2017-06-24T12:37:20.175Z,33.59
2017-06-24T12:38:22.036Z,33.28
2017-06-24T12:39:36.184Z,33.77
2017-06-24T12:40:38.056Z,33.86
2017-06-24T12:41:39.945Z,33.86
2017-06-24T12:42:41.807Z,34.35
2017-06-24T12:43:43.633Z,34.25
2017-06-24T12:44:45.461Z,34.55
2017-06-24T12:45:47.353Z,34.55
2017-06-24T12:46:49.244Z,34.56
2017-06-24T12:47:51.114Z,33.88
2017-06-24T12:49:05.306Z,34.06
2017-06-24T12:50:07.177Z,34.64
2017-06-24T12:51:09.073Z,34.66
2017-06-24T12:52:10.958Z,34.86
2017-06-24T12:53:12.770Z,34.95
2017-06-24T12:54:14.601Z,34.78
2017-06-24T12:55:16.475Z,34.58
2017-06-24T12:56:18.341Z,34.29
2017-06-24T12:57:20.215Z,33.80
2017-06-24T12:58:34.359Z,33.88
2017-06-24T12:59:36.244Z,34.37
2017-06-24T13:00:38.113Z,35.44
2017-06-24T13:01:40.006Z,34.95
2017-06-24T13:02:41.821Z,34.37
2017-06-24T13:03:43.651Z,33.69
2017-06-24T13:04:45.528Z,34.19
2017-06-24T13:05:47.379Z,34.48
2017-06-24T13:06:49.212Z,34.11
2017-06-24T13:08:03.416Z,34.01
2017-06-24T13:09:05.301Z,33.92
2017-06-24T13:10:07.172Z,33.72
2017-06-24T13:11:09.062Z,33.82
2017-06-24T13:12:10.872Z,34.12
2017-06-24T13:13:12.685Z,32.75
2017-06-24T13:14:14.559Z,32.26
2017-06-24T13:15:16.430Z,32.82
2017-06-24T13:16:18.324Z,32.84
2017-06-24T13:17:32.495Z,33.06
2017-06-24T13:18:34.391Z,33.25
2017-06-24T13:19:36.258Z,33.07
2017-06-24T13:20:38.149Z,33.26
2017-06-24T13:21:39.961Z,32.70
2017-06-24T13:22:41.803Z,32.01
2017-06-24T13:23:43.660Z,32.40
2017-06-24T13:24:45.531Z,32.48
2017-06-24T13:25:47.424Z,31.90
2017-06-24T13:27:01.573Z,31.41
2017-06-24T13:28:03.444Z,31.12
2017-06-24T13:29:05.317Z,32.19
2017-06-24T13:30:07.208Z,32.48
2017-06-24T13:31:09.023Z,31.80
2017-06-24T13:32:10.855Z,32.47
2017-06-24T13:33:12.751Z,33.06
2017-06-24T13:34:14.639Z,32.18